• Join FlightAware (Why Join?)
  • Login
  • US Flag 
04:28AM EDT


 

Airport Tracker/Info


-or-


 

Live Flight TrackerFlight Track Log ✈ FLG4202 ✈ 29-Apr-2013 ✈ KDTW - KSYR

Flight Track Log - Related Links

Times and Time Zones

All times are in EDT time to prevent confusion due to time zone crossing. See the FLG4202 flight status page for this flight to view local times or setup timezone preferences in your user account.

Time Position Orientation Groundspeed Altitude Reporting Facility
EDT Latitude Longitude Course Direction KTS MPH feet Rate Location/Type
12:47PM 42.1994 -83.3581 90° East 157 181 1,300  Level Cleveland Center
12:48PM 42.1119 -83.3514 177° South 256 295 4,600 2,220 Climbing Cleveland Center
12:49PM 42.0531 -83.2958 145° Southeast 287 330 7,300 2,520 Climbing Cleveland Center
12:50PM 42.3094 -82.7863 75° East  Level FlightAware Approximate
12:51PM 42.3274 -82.6427 82° East  Level FlightAware Approximate
12:51PM 42.0875 -83.1572 71° East 296 341 10,700  Level Cleveland Center
12:52PM 42.3500 -82.5010 90° East  Level FlightAware Approximate
12:52PM 42.1292 -83.0583 60° Northeast 289 333 12,600  Level Cleveland Center
12:53PM 42.1733 -82.9478 62° Northeast 306 352 13,700 1,020 Climbing Cleveland Center
12:54PM 42.2194 -82.8289 62° Northeast 345 397 14,700 1,320 Climbing Cleveland Center
12:55PM 42.2675 -82.7100 61° Northeast 359 413 16,400 1,500 Climbing Cleveland Center
12:56PM 42.3178 -82.5825 62° Northeast 369 425 17,800 1,380 Climbing Cleveland Center
12:57PM 42.3617 -82.4489 66° East 375 432 19,200 1,380 Climbing Cleveland Center
12:58PM 42.3597 -82.3028 91° East 375 432 20,600 1,200 Climbing Cleveland Center
12:59PM 42.3536 -82.1536 93° East 380 437 21,700 900 Climbing Cleveland Center
01:00PM 42.3494 -81.9992 92° East 405 466 22,500 780 Climbing Cleveland Center
01:01PM 42.3428 -81.8417 93° East 410 472 23,300 780 Climbing Cleveland Center
01:02PM 42.3361 -81.6842 93° East 419 482 24,100 720 Climbing Cleveland Center
01:03PM 42.3311 -81.5408 93° East 429 494 24,800 780 Climbing Cleveland Center
01:04PM 42.3200 -81.3469 94° East 424 488 25,700 900 Climbing Cleveland Center
01:05PM 42.3106 -81.1839 94° East 424 488 26,600 600 Climbing Cleveland Center
01:06PM 42.3031 -81.0239 94° East 424 488 27,000 180 Climbing Cleveland Center
01:07PM 42.2953 -80.8556 94° East 434 499 27,000  Level Cleveland Center
01:08PM 42.2850 -80.6869 95° East 442 509 27,000  Level Cleveland Center
01:09PM 42.2767 -80.5214 94° East 448 516 27,000  Level Cleveland Center
01:10PM 42.2661 -80.3503 95° East 448 516 27,000  Level Cleveland Center
01:11PM 42.2572 -80.1819 94° East 448 516 27,000  Level Cleveland Center
01:12PM 42.2464 -80.0306 95° East 456 525 27,000  Level Cleveland Center
01:13PM 42.2369 -79.8597 94° East 456 525 27,000  Level Cleveland Center
01:14PM 42.2253 -79.6747 95° East 456 525 27,000  Level Cleveland Center
01:15PM 42.2156 -79.5206 95° East 456 525 27,000  Level Cleveland Center
01:16PM 42.2036 -79.3500 95° East 456 525 27,000  Level Cleveland Center
01:17PM 42.1933 -79.1819 95° East 456 525 27,000  Level Cleveland Center
01:18PM 42.2183 -79.0186 78° East 456 525 27,000  Level Cleveland Center
01:19PM 42.2742 -78.8489 66° East 443 510 27,000  Level Cleveland Center
01:20PM 42.3239 -78.6958 66° East 443 510 27,000  Level Cleveland Center
01:21PM 42.3733 -78.5428 66° East 443 510 27,000  Level Cleveland Center
01:22PM 42.4228 -78.3864 67° East 443 510 27,000 -180 Level Cleveland Center
01:23PM 42.4717 -78.2328 67° East 443 510 26,700 -660 Descending Cleveland Center
01:24PM 42.5186 -78.0789 67° East 443 510 25,700 -1,020 Descending Cleveland Center
01:25PM 42.5653 -77.9275 67° East 436 502 24,700 -960 Descending Cleveland Center
01:26PM 42.6081 -77.7989 66° East 431 496 23,800 -1,200 Descending Cleveland Center
01:27PM 42.6503 -77.6558 68° East 416 479 22,400 -1,800 Descending Cleveland Center
01:28PM 42.6944 -77.5094 68° East 411 473 20,300 -2,100 Descending Cleveland Center
01:29PM 42.7364 -77.3689 68° East 405 466 18,300 -1,980 Descending Cleveland Center
01:30PM 42.7786 -77.2339 67° East 395 455 16,400 -1,980 Descending Cleveland Center
01:31PM 42.8411 -77.0367 67° East 367 422 13,500 -1,800 Descending Boston Center
01:32PM 42.8775 -76.9089 69° East 363 418 12,000 -1,500 Descending Boston Center
01:33PM 42.9247 -76.7678 65° Northeast 342 394 10,400 -1,560 Descending Boston Center
01:34PM 42.9703 -76.6631 59° Northeast 289 333 8,600 -2,100 Descending Boston Center
01:35PM 43.0067 -76.5803 59° Northeast 274 315 6,200 -2,340 Descending Boston Center
01:36PM 43.0450 -76.4975 58° Northeast 260 299 4,200 -1,860 Descending Boston Center
01:37PM 43.0833 -76.4147 58° Northeast 250 288 2,500 -960 Descending Boston Center
01:38PM 43.1031 -76.3336 72° East 220 253 2,300 -120 Descending Boston Center
01:39PM 43.1033 -76.2625 90° East 190 219 2,300  Level Boston Center